sensor_id;sensor_type;location;lat;lon;timestamp;temperature;humidity
19966;DHT22;10144;50.874;4.762;2023-07-31T00:01:18;16.90;99.90
19966;DHT22;10144;50.874;4.762;2023-07-31T00:03:45;17.00;99.90
19966;DHT22;10144;50.874;4.762;2023-07-31T00:06:12;17.00;99.90
19966;DHT22;10144;50.874;4.762;2023-07-31T00:08:53;17.00;99.90
19966;DHT22;10144;50.874;4.762;2023-07-31T00:11:18;17.00;99.90
19966;DHT22;10144;50.874;4.762;2023-07-31T00:13:47;16.90;99.90
19966;DHT22;10144;50.874;4.762;2023-07-31T00:16:13;16.90;99.90
19966;DHT22;10144;50.874;4.762;2023-07-31T00:18:39;16.90;99.90
19966;DHT22;10144;50.874;4.762;2023-07-31T00:21:05;16.90;99.90
19966;DHT22;10144;50.874;4.762;2023-07-31T00:23:34;17.00;99.90
19966;DHT22;10144;50.874;4.762;2023-07-31T00:26:00;17.00;99.90
19966;DHT22;10144;50.874;4.762;2023-07-31T00:28:27;17.00;99.90
19966;DHT22;10144;50.874;4.762;2023-07-31T00:30:59;17.10;99.90
19966;DHT22;10144;50.874;4.762;2023-07-31T00:33:25;17.10;99.90
19966;DHT22;10144;50.874;4.762;2023-07-31T00:35:54;17.10;99.90
19966;DHT22;10144;50.874;4.762;2023-07-31T00:38:26;17.00;99.90
19966;DHT22;10144;50.874;4.762;2023-07-31T00:40:51;17.00;99.90
19966;DHT22;10144;50.874;4.762;2023-07-31T00:43:24;17.10;99.90
19966;DHT22;10144;50.874;4.762;2023-07-31T00:45:50;17.20;99.90
19966;DHT22;10144;50.874;4.762;2023-07-31T00:48:19;17.20;99.90
19966;DHT22;10144;50.874;4.762;2023-07-31T00:50:44;17.30;99.90
19966;DHT22;10144;50.874;4.762;2023-07-31T00:53:11;17.20;99.90
19966;DHT22;10144;50.874;4.762;2023-07-31T00:55:42;17.30;99.90
19966;DHT22;10144;50.874;4.762;2023-07-31T00:58:13;17.30;99.90
19966;DHT22;10144;50.874;4.762;2023-07-31T01:00:42;17.20;99.90
19966;DHT22;10144;50.874;4.762;2023-07-31T01:03:11;17.30;99.90
19966;DHT22;10144;50.874;4.762;2023-07-31T01:11:31;17.20;99.90
19966;DHT22;10144;50.874;4.762;2023-07-31T01:13:59;17.20;99.90
19966;DHT22;10144;50.874;4.762;2023-07-31T01:16:28;17.20;99.90
19966;DHT22;10144;50.874;4.762;2023-07-31T01:18:54;17.30;99.90
19966;DHT22;10144;50.874;4.762;2023-07-31T01:27:04;17.20;99.90
19966;DHT22;10144;50.874;4.762;2023-07-31T01:30:11;17.30;99.90
19966;DHT22;10144;50.874;4.762;2023-07-31T01:32:43;17.20;99.90
19966;DHT22;10144;50.874;4.762;2023-07-31T01:35:13;17.30;99.90
19966;DHT22;10144;50.874;4.762;2023-07-31T01:37:42;17.20;99.90
19966;DHT22;10144;50.874;4.762;2023-07-31T01:40:13;17.20;99.90
19966;DHT22;10144;50.874;4.762;2023-07-31T01:42:45;17.20;99.90
19966;DHT22;10144;50.874;4.762;2023-07-31T01:45:13;17.20;99.90
19966;DHT22;10144;50.874;4.762;2023-07-31T01:47:44;17.30;99.90
19966;DHT22;10144;50.874;4.762;2023-07-31T01:50:10;17.40;99.90
19966;DHT22;10144;50.874;4.762;2023-07-31T01:52:36;17.40;99.90
19966;DHT22;10144;50.874;4.762;2023-07-31T01:55:03;17.40;99.90
19966;DHT22;10144;50.874;4.762;2023-07-31T01:57:30;17.40;99.90
19966;DHT22;10144;50.874;4.762;2023-07-31T01:59:56;17.40;99.90
19966;DHT22;10144;50.874;4.762;2023-07-31T02:02:23;17.50;99.90
19966;DHT22;10144;50.874;4.762;2023-07-31T02:04:49;17.50;99.90
19966;DHT22;10144;50.874;4.762;2023-07-31T02:07:16;17.40;99.90
19966;DHT22;10144;50.874;4.762;2023-07-31T02:09:41;17.40;99.90
19966;DHT22;10144;50.874;4.762;2023-07-31T02:12:07;17.40;99.90
19966;DHT22;10144;50.874;4.762;2023-07-31T02:14:42;17.50;99.90
19966;DHT22;10144;50.874;4.762;2023-07-31T02:17:10;17.30;99.90
19966;DHT22;10144;50.874;4.762;2023-07-31T02:19:39;17.40;99.90
19966;DHT22;10144;50.874;4.762;2023-07-31T02:22:05;17.40;99.90
19966;DHT22;10144;50.874;4.762;2023-07-31T02:24:33;17.50;99.90
19966;DHT22;10144;50.874;4.762;2023-07-31T02:26:58;17.60;99.90
19966;DHT22;10144;50.874;4.762;2023-07-31T02:29:27;17.60;99.90
19966;DHT22;10144;50.874;4.762;2023-07-31T02:31:53;17.60;99.90
19966;DHT22;10144;50.874;4.762;2023-07-31T02:34:20;17.50;99.90
19966;DHT22;10144;50.874;4.762;2023-07-31T02:36:45;17.50;99.90
19966;DHT22;10144;50.874;4.762;2023-07-31T02:39:14;17.50;99.90
19966;DHT22;10144;50.874;4.762;2023-07-31T02:41:40;17.60;99.90
19966;DHT22;10144;50.874;4.762;2023-07-31T02:44:06;17.50;99.90
19966;DHT22;10144;50.874;4.762;2023-07-31T02:46:32;17.50;99.90
19966;DHT22;10144;50.874;4.762;2023-07-31T02:49:01;17.60;99.90
19966;DHT22;10144;50.874;4.762;2023-07-31T02:51:29;17.60;99.90
19966;DHT22;10144;50.874;4.762;2023-07-31T02:53:58;17.50;99.90
19966;DHT22;10144;50.874;4.762;2023-07-31T02:56:29;17.50;99.90
19966;DHT22;10144;50.874;4.762;2023-07-31T02:58:58;17.60;99.90
19966;DHT22;10144;50.874;4.762;2023-07-31T03:01:24;17.50;99.90
19966;DHT22;10144;50.874;4.762;2023-07-31T03:03:55;17.60;99.90
19966;DHT22;10144;50.874;4.762;2023-07-31T03:06:24;17.60;99.90
19966;DHT22;10144;50.874;4.762;2023-07-31T03:08:53;17.60;99.90
19966;DHT22;10144;50.874;4.762;2023-07-31T03:11:18;17.60;99.90
19966;DHT22;10144;50.874;4.762;2023-07-31T03:13:45;17.60;99.90
19966;DHT22;10144;50.874;4.762;2023-07-31T03:16:11;17.50;99.90
19966;DHT22;10144;50.874;4.762;2023-07-31T03:18:37;17.50;99.90
19966;DHT22;10144;50.874;4.762;2023-07-31T03:21:04;17.50;99.90
19966;DHT22;10144;50.874;4.762;2023-07-31T03:23:33;17.50;99.90
19966;DHT22;10144;50.874;4.762;2023-07-31T03:26:00;17.50;99.90
19966;DHT22;10144;50.874;4.762;2023-07-31T03:28:26;17.50;99.90
19966;DHT22;10144;50.874;4.762;2023-07-31T03:30:53;17.50;99.90
19966;DHT22;10144;50.874;4.762;2023-07-31T03:33:19;17.40;99.90
19966;DHT22;10144;50.874;4.762;2023-07-31T03:35:46;17.40;99.90
19966;DHT22;10144;50.874;4.762;2023-07-31T03:38:12;17.50;99.90
19966;DHT22;10144;50.874;4.762;2023-07-31T03:40:39;17.50;99.90
19966;DHT22;10144;50.874;4.762;2023-07-31T03:43:05;17.50;99.90
19966;DHT22;10144;50.874;4.762;2023-07-31T03:45:31;17.60;99.90
19966;DHT22;10144;50.874;4.762;2023-07-31T03:48:00;17.70;99.90
19966;DHT22;10144;50.874;4.762;2023-07-31T03:50:26;17.60;99.90
19966;DHT22;10144;50.874;4.762;2023-07-31T03:52:52;17.50;99.90
19966;DHT22;10144;50.874;4.762;2023-07-31T03:55:21;17.50;99.90
19966;DHT22;10144;50.874;4.762;2023-07-31T03:57:48;17.50;99.90
19966;DHT22;10144;50.874;4.762;2023-07-31T04:00:14;17.50;99.90
19966;DHT22;10144;50.874;4.762;2023-07-31T04:02:39;17.60;99.90
19966;DHT22;10144;50.874;4.762;2023-07-31T04:05:06;17.40;99.90
19966;DHT22;10144;50.874;4.762;2023-07-31T04:07:31;17.30;99.90
19966;DHT22;10144;50.874;4.762;2023-07-31T04:09:57;17.30;99.90
19966;DHT22;10144;50.874;4.762;2023-07-31T04:12:25;17.40;99.90
19966;DHT22;10144;50.874;4.762;2023-07-31T04:14:54;17.30;99.90
19966;DHT22;10144;50.874;4.762;2023-07-31T04:17:20;17.30;99.90
19966;DHT22;10144;50.874;4.762;2023-07-31T04:19:49;17.30;99.90
19966;DHT22;10144;50.874;4.762;2023-07-31T04:22:14;17.30;99.90
19966;DHT22;10144;50.874;4.762;2023-07-31T04:24:43;17.30;99.90
19966;DHT22;10144;50.874;4.762;2023-07-31T04:27:10;17.40;99.90
19966;DHT22;10144;50.874;4.762;2023-07-31T04:29:42;17.30;99.90
19966;DHT22;10144;50.874;4.762;2023-07-31T04:32:12;17.20;99.90
19966;DHT22;10144;50.874;4.762;2023-07-31T04:34:41;17.10;99.90
19966;DHT22;10144;50.874;4.762;2023-07-31T04:37:15;17.20;99.90
19966;DHT22;10144;50.874;4.762;2023-07-31T04:39:41;17.20;99.90
19966;DHT22;10144;50.874;4.762;2023-07-31T04:42:08;17.10;99.90
19966;DHT22;10144;50.874;4.762;2023-07-31T04:44:46;17.10;99.90
19966;DHT22;10144;50.874;4.762;2023-07-31T04:47:13;17.00;99.90
19966;DHT22;10144;50.874;4.762;2023-07-31T04:49:39;17.00;99.90
19966;DHT22;10144;50.874;4.762;2023-07-31T04:52:11;17.10;99.90
19966;DHT22;10144;50.874;4.762;2023-07-31T04:54:38;17.10;99.90
19966;DHT22;10144;50.874;4.762;2023-07-31T04:57:07;17.10;99.90
19966;DHT22;10144;50.874;4.762;2023-07-31T04:59:36;17.00;99.90
19966;DHT22;10144;50.874;4.762;2023-07-31T05:02:08;17.00;99.90
19966;DHT22;10144;50.874;4.762;2023-07-31T05:04:37;17.10;99.90
19966;DHT22;10144;50.874;4.762;2023-07-31T05:07:03;17.20;99.90
19966;DHT22;10144;50.874;4.762;2023-07-31T05:09:30;17.10;99.90
19966;DHT22;10144;50.874;4.762;2023-07-31T05:12:01;17.20;99.90
19966;DHT22;10144;50.874;4.762;2023-07-31T05:14:27;17.20;99.90
19966;DHT22;10144;50.874;4.762;2023-07-31T05:16:54;17.20;99.90
19966;DHT22;10144;50.874;4.762;2023-07-31T05:19:21;17.20;99.90
19966;DHT22;10144;50.874;4.762;2023-07-31T05:21:49;17.00;99.90
19966;DHT22;10144;50.874;4.762;2023-07-31T05:24:21;17.10;99.90
19966;DHT22;10144;50.874;4.762;2023-07-31T05:26:54;17.10;99.90
19966;DHT22;10144;50.874;4.762;2023-07-31T05:29:23;17.10;99.90
19966;DHT22;10144;50.874;4.762;2023-07-31T05:31:52;17.20;99.90
19966;DHT22;10144;50.874;4.762;2023-07-31T05:34:19;17.10;99.90
19966;DHT22;10144;50.874;4.762;2023-07-31T05:36:48;17.00;99.90
19966;DHT22;10144;50.874;4.762;2023-07-31T05:39:15;16.90;99.90
19966;DHT22;10144;50.874;4.762;2023-07-31T05:41:42;16.80;99.90
19966;DHT22;10144;50.874;4.762;2023-07-31T05:44:10;16.80;99.90
19966;DHT22;10144;50.874;4.762;2023-07-31T05:46:36;16.80;99.90
19966;DHT22;10144;50.874;4.762;2023-07-31T05:49:01;16.80;99.90
19966;DHT22;10144;50.874;4.762;2023-07-31T05:51:29;16.70;99.90
19966;DHT22;10144;50.874;4.762;2023-07-31T05:53:55;16.90;99.90
19966;DHT22;10144;50.874;4.762;2023-07-31T05:56:21;16.90;99.90
19966;DHT22;10144;50.874;4.762;2023-07-31T05:58:47;16.90;99.90
19966;DHT22;10144;50.874;4.762;2023-07-31T06:01:15;16.70;99.90
19966;DHT22;10144;50.874;4.762;2023-07-31T06:03:41;16.70;99.90
19966;DHT22;10144;50.874;4.762;2023-07-31T06:06:06;16.60;99.90
19966;DHT22;10144;50.874;4.762;2023-07-31T06:08:32;16.60;99.90
19966;DHT22;10144;50.874;4.762;2023-07-31T06:10:58;16.70;99.90
19966;DHT22;10144;50.874;4.762;2023-07-31T06:13:23;16.60;99.90
19966;DHT22;10144;50.874;4.762;2023-07-31T06:15:49;16.60;99.90
19966;DHT22;10144;50.874;4.762;2023-07-31T06:18:16;16.60;99.90
19966;DHT22;10144;50.874;4.762;2023-07-31T06:20:43;16.60;99.90
19966;DHT22;10144;50.874;4.762;2023-07-31T06:23:08;16.60;99.90
19966;DHT22;10144;50.874;4.762;2023-07-31T06:25:34;16.60;99.90
19966;DHT22;10144;50.874;4.762;2023-07-31T06:28:00;16.60;99.90
19966;DHT22;10144;50.874;4.762;2023-07-31T06:30:25;16.50;99.90
19966;DHT22;10144;50.874;4.762;2023-07-31T06:32:51;16.50;99.90
19966;DHT22;10144;50.874;4.762;2023-07-31T06:35:16;16.50;99.90
19966;DHT22;10144;50.874;4.762;2023-07-31T06:37:42;16.50;99.90
19966;DHT22;10144;50.874;4.762;2023-07-31T06:40:10;16.50;99.90
19966;DHT22;10144;50.874;4.762;2023-07-31T06:42:36;16.50;99.90
19966;DHT22;10144;50.874;4.762;2023-07-31T06:45:02;16.60;99.90
19966;DHT22;10144;50.874;4.762;2023-07-31T06:47:28;16.60;99.90
19966;DHT22;10144;50.874;4.762;2023-07-31T06:49:53;16.60;99.90
19966;DHT22;10144;50.874;4.762;2023-07-31T06:52:19;16.60;99.90
19966;DHT22;10144;50.874;4.762;2023-07-31T06:55:03;16.70;99.90
19966;DHT22;10144;50.874;4.762;2023-07-31T06:57:29;16.90;99.90
19966;DHT22;10144;50.874;4.762;2023-07-31T06:59:55;16.90;99.90
19966;DHT22;10144;50.874;4.762;2023-07-31T07:02:21;16.80;99.90
19966;DHT22;10144;50.874;4.762;2023-07-31T07:04:46;16.80;99.90
19966;DHT22;10144;50.874;4.762;2023-07-31T07:07:12;16.80;99.90
19966;DHT22;10144;50.874;4.762;2023-07-31T07:09:37;16.80;99.90
19966;DHT22;10144;50.874;4.762;2023-07-31T07:12:03;16.90;99.90
19966;DHT22;10144;50.874;4.762;2023-07-31T07:14:29;17.00;99.90
19966;DHT22;10144;50.874;4.762;2023-07-31T07:16:56;17.00;99.90
19966;DHT22;10144;50.874;4.762;2023-07-31T07:19:21;17.20;99.90
19966;DHT22;10144;50.874;4.762;2023-07-31T07:21:47;17.30;99.90
19966;DHT22;10144;50.874;4.762;2023-07-31T07:24:13;17.30;99.90
19966;DHT22;10144;50.874;4.762;2023-07-31T07:26:38;17.20;99.90
19966;DHT22;10144;50.874;4.762;2023-07-31T07:29:04;17.20;99.90
19966;DHT22;10144;50.874;4.762;2023-07-31T07:31:32;17.30;99.90
19966;DHT22;10144;50.874;4.762;2023-07-31T07:33:58;17.40;99.90
19966;DHT22;10144;50.874;4.762;2023-07-31T07:36:23;17.40;99.90
19966;DHT22;10144;50.874;4.762;2023-07-31T07:38:49;17.50;99.90
19966;DHT22;10144;50.874;4.762;2023-07-31T07:41:15;17.40;99.90
19966;DHT22;10144;50.874;4.762;2023-07-31T07:43:40;17.40;99.90
19966;DHT22;10144;50.874;4.762;2023-07-31T07:46:06;17.40;99.90
19966;DHT22;10144;50.874;4.762;2023-07-31T07:48:31;17.40;99.90
19966;DHT22;10144;50.874;4.762;2023-07-31T07:50:57;17.50;99.90
19966;DHT22;10144;50.874;4.762;2023-07-31T07:53:23;17.50;99.90
19966;DHT22;10144;50.874;4.762;2023-07-31T07:55:48;17.50;99.90
19966;DHT22;10144;50.874;4.762;2023-07-31T07:58:14;17.50;99.90
19966;DHT22;10144;50.874;4.762;2023-07-31T08:00:39;17.40;99.90
19966;DHT22;10144;50.874;4.762;2023-07-31T08:03:06;17.50;99.90
19966;DHT22;10144;50.874;4.762;2023-07-31T08:05:31;17.50;99.90
19966;DHT22;10144;50.874;4.762;2023-07-31T08:07:59;17.50;99.90
19966;DHT22;10144;50.874;4.762;2023-07-31T08:10:25;17.60;99.90
19966;DHT22;10144;50.874;4.762;2023-07-31T08:12:50;17.50;99.90
19966;DHT22;10144;50.874;4.762;2023-07-31T08:15:16;17.60;99.90
19966;DHT22;10144;50.874;4.762;2023-07-31T08:17:42;17.60;99.90
19966;DHT22;10144;50.874;4.762;2023-07-31T08:20:08;17.60;99.90
19966;DHT22;10144;50.874;4.762;2023-07-31T08:22:34;17.70;99.90
19966;DHT22;10144;50.874;4.762;2023-07-31T08:25:00;17.60;99.90
19966;DHT22;10144;50.874;4.762;2023-07-31T08:27:25;17.60;99.90
19966;DHT22;10144;50.874;4.762;2023-07-31T08:29:52;17.60;99.90
19966;DHT22;10144;50.874;4.762;2023-07-31T08:32:17;17.70;99.90
19966;DHT22;10144;50.874;4.762;2023-07-31T08:34:43;17.70;99.90
19966;DHT22;10144;50.874;4.762;2023-07-31T08:37:09;17.90;99.90
19966;DHT22;10144;50.874;4.762;2023-07-31T08:39:36;17.90;99.90
19966;DHT22;10144;50.874;4.762;2023-07-31T08:42:08;18.00;99.90
19966;DHT22;10144;50.874;4.762;2023-07-31T08:44:34;18.10;99.90
19966;DHT22;10144;50.874;4.762;2023-07-31T08:47:00;18.20;99.90
19966;DHT22;10144;50.874;4.762;2023-07-31T08:49:27;18.20;99.90
19966;DHT22;10144;50.874;4.762;2023-07-31T08:51:54;18.10;99.90
19966;DHT22;10144;50.874;4.762;2023-07-31T08:54:20;18.10;99.90
19966;DHT22;10144;50.874;4.762;2023-07-31T08:56:47;18.10;99.90
19966;DHT22;10144;50.874;4.762;2023-07-31T08:59:14;18.00;99.90
19966;DHT22;10144;50.874;4.762;2023-07-31T09:01:45;18.10;99.90
19966;DHT22;10144;50.874;4.762;2023-07-31T09:04:13;18.10;99.90
19966;DHT22;10144;50.874;4.762;2023-07-31T09:06:39;18.20;99.90
19966;DHT22;10144;50.874;4.762;2023-07-31T09:09:06;18.20;99.90
19966;DHT22;10144;50.874;4.762;2023-07-31T09:11:32;18.10;99.90
19966;DHT22;10144;50.874;4.762;2023-07-31T09:13:58;18.00;99.90
19966;DHT22;10144;50.874;4.762;2023-07-31T09:16:28;18.00;99.90
19966;DHT22;10144;50.874;4.762;2023-07-31T09:18:56;18.10;99.90
19966;DHT22;10144;50.874;4.762;2023-07-31T09:21:23;18.00;99.90
19966;DHT22;10144;50.874;4.762;2023-07-31T09:23:49;18.10;99.90
19966;DHT22;10144;50.874;4.762;2023-07-31T09:26:36;18.10;99.90
19966;DHT22;10144;50.874;4.762;2023-07-31T09:29:06;18.00;99.90
19966;DHT22;10144;50.874;4.762;2023-07-31T09:31:43;17.90;99.90
19966;DHT22;10144;50.874;4.762;2023-07-31T09:34:09;18.00;99.90
19966;DHT22;10144;50.874;4.762;2023-07-31T09:36:47;18.00;99.90
19966;DHT22;10144;50.874;4.762;2023-07-31T09:39:15;18.10;99.90
19966;DHT22;10144;50.874;4.762;2023-07-31T09:41:54;18.10;99.90
19966;DHT22;10144;50.874;4.762;2023-07-31T09:44:20;18.10;99.90
19966;DHT22;10144;50.874;4.762;2023-07-31T09:46:45;18.30;99.90
19966;DHT22;10144;50.874;4.762;2023-07-31T09:49:13;18.40;99.90
19966;DHT22;10144;50.874;4.762;2023-07-31T09:51:40;18.40;99.90
19966;DHT22;10144;50.874;4.762;2023-07-31T09:54:14;18.60;99.90
19966;DHT22;10144;50.874;4.762;2023-07-31T09:56:48;18.80;99.90
19966;DHT22;10144;50.874;4.762;2023-07-31T09:59:18;19.10;99.90
19966;DHT22;10144;50.874;4.762;2023-07-31T10:01:45;19.20;99.90
19966;DHT22;10144;50.874;4.762;2023-07-31T10:04:12;19.20;99.90
19966;DHT22;10144;50.874;4.762;2023-07-31T10:06:40;19.40;99.90
19966;DHT22;10144;50.874;4.762;2023-07-31T10:09:08;19.40;99.90
19966;DHT22;10144;50.874;4.762;2023-07-31T10:11:51;19.20;99.90
19966;DHT22;10144;50.874;4.762;2023-07-31T10:14:21;19.10;99.90
19966;DHT22;10144;50.874;4.762;2023-07-31T10:16:49;19.00;99.90
19966;DHT22;10144;50.874;4.762;2023-07-31T10:19:16;19.20;99.90
19966;DHT22;10144;50.874;4.762;2023-07-31T10:21:43;19.20;99.90
19966;DHT22;10144;50.874;4.762;2023-07-31T10:24:09;19.40;99.90
19966;DHT22;10144;50.874;4.762;2023-07-31T10:26:35;19.40;99.90
19966;DHT22;10144;50.874;4.762;2023-07-31T10:29:03;19.40;99.90
19966;DHT22;10144;50.874;4.762;2023-07-31T10:31:30;19.20;99.90
19966;DHT22;10144;50.874;4.762;2023-07-31T10:33:58;19.10;99.90
19966;DHT22;10144;50.874;4.762;2023-07-31T10:36:24;19.20;99.90
19966;DHT22;10144;50.874;4.762;2023-07-31T10:38:51;19.30;99.90
19966;DHT22;10144;50.874;4.762;2023-07-31T10:41:17;19.40;99.90
19966;DHT22;10144;50.874;4.762;2023-07-31T10:43:45;19.60;99.90
19966;DHT22;10144;50.874;4.762;2023-07-31T10:46:13;20.00;99.90
19966;DHT22;10144;50.874;4.762;2023-07-31T10:48:40;20.20;99.90
19966;DHT22;10144;50.874;4.762;2023-07-31T10:51:08;20.30;99.90
19966;DHT22;10144;50.874;4.762;2023-07-31T10:53:35;20.40;99.90
19966;DHT22;10144;50.874;4.762;2023-07-31T10:56:07;20.40;99.90
19966;DHT22;10144;50.874;4.762;2023-07-31T10:58:33;20.40;99.90
19966;DHT22;10144;50.874;4.762;2023-07-31T11:01:04;20.30;99.90
19966;DHT22;10144;50.874;4.762;2023-07-31T11:03:47;20.20;99.90
19966;DHT22;10144;50.874;4.762;2023-07-31T11:06:19;20.10;99.90
19966;DHT22;10144;50.874;4.762;2023-07-31T11:08:49;20.00;99.90
19966;DHT22;10144;50.874;4.762;2023-07-31T11:11:20;20.10;99.90
19966;DHT22;10144;50.874;4.762;2023-07-31T11:13:53;20.00;99.90
19966;DHT22;10144;50.874;4.762;2023-07-31T11:16:24;20.00;99.90
19966;DHT22;10144;50.874;4.762;2023-07-31T11:18:50;20.10;99.90
19966;DHT22;10144;50.874;4.762;2023-07-31T11:21:24;20.30;99.90
19966;DHT22;10144;50.874;4.762;2023-07-31T11:23:57;20.40;99.90
19966;DHT22;10144;50.874;4.762;2023-07-31T11:26:23;20.30;99.90
19966;DHT22;10144;50.874;4.762;2023-07-31T11:28:50;20.00;99.90
19966;DHT22;10144;50.874;4.762;2023-07-31T11:31:19;20.00;99.90
19966;DHT22;10144;50.874;4.762;2023-07-31T11:33:45;20.00;99.90
19966;DHT22;10144;50.874;4.762;2023-07-31T11:36:15;20.10;99.90
19966;DHT22;10144;50.874;4.762;2023-07-31T11:38:41;20.20;99.90
19966;DHT22;10144;50.874;4.762;2023-07-31T11:41:07;20.20;99.90
19966;DHT22;10144;50.874;4.762;2023-07-31T11:43:33;20.30;99.90
19966;DHT22;10144;50.874;4.762;2023-07-31T11:46:00;20.30;99.90
19966;DHT22;10144;50.874;4.762;2023-07-31T11:48:31;20.40;99.90
19966;DHT22;10144;50.874;4.762;2023-07-31T11:51:01;20.60;99.90
19966;DHT22;10144;50.874;4.762;2023-07-31T11:56:17;20.40;99.90
19966;DHT22;10144;50.874;4.762;2023-07-31T11:58:45;20.40;99.90
19966;DHT22;10144;50.874;4.762;2023-07-31T12:01:13;20.30;99.90
19966;DHT22;10144;50.874;4.762;2023-07-31T12:03:39;20.40;99.90
19966;DHT22;10144;50.874;4.762;2023-07-31T12:06:05;20.40;99.90
19966;DHT22;10144;50.874;4.762;2023-07-31T12:08:31;20.40;99.90
19966;DHT22;10144;50.874;4.762;2023-07-31T12:11:03;20.50;99.90
19966;DHT22;10144;50.874;4.762;2023-07-31T12:13:31;20.60;99.90
19966;DHT22;10144;50.874;4.762;2023-07-31T12:16:01;20.50;99.90
19966;DHT22;10144;50.874;4.762;2023-07-31T12:18:35;20.60;99.90
19966;DHT22;10144;50.874;4.762;2023-07-31T12:21:03;20.80;99.90
19966;DHT22;10144;50.874;4.762;2023-07-31T12:23:31;20.80;99.90
19966;DHT22;10144;50.874;4.762;2023-07-31T12:26:14;21.00;99.90
19966;DHT22;10144;50.874;4.762;2023-07-31T12:28:46;21.20;99.90
19966;DHT22;10144;50.874;4.762;2023-07-31T12:31:17;21.40;99.90
19966;DHT22;10144;50.874;4.762;2023-07-31T12:33:44;21.30;99.90
19966;DHT22;10144;50.874;4.762;2023-07-31T12:36:11;21.20;99.90
19966;DHT22;10144;50.874;4.762;2023-07-31T12:38:37;21.00;99.90
19966;DHT22;10144;50.874;4.762;2023-07-31T12:41:03;21.00;99.90
19966;DHT22;10144;50.874;4.762;2023-07-31T12:43:30;21.00;99.90
19966;DHT22;10144;50.874;4.762;2023-07-31T12:45:56;21.00;99.90
19966;DHT22;10144;50.874;4.762;2023-07-31T12:48:22;21.00;99.90
19966;DHT22;10144;50.874;4.762;2023-07-31T12:50:47;20.90;99.90
19966;DHT22;10144;50.874;4.762;2023-07-31T12:53:14;21.00;99.90
19966;DHT22;10144;50.874;4.762;2023-07-31T12:55:40;21.10;99.90
19966;DHT22;10144;50.874;4.762;2023-07-31T12:58:05;20.90;99.90
19966;DHT22;10144;50.874;4.762;2023-07-31T13:00:31;20.90;99.90
19966;DHT22;10144;50.874;4.762;2023-07-31T13:02:57;21.00;99.90
19966;DHT22;10144;50.874;4.762;2023-07-31T13:05:22;20.90;99.90
19966;DHT22;10144;50.874;4.762;2023-07-31T13:07:48;20.80;99.90
19966;DHT22;10144;50.874;4.762;2023-07-31T13:10:14;20.80;99.90
19966;DHT22;10144;50.874;4.762;2023-07-31T13:12:40;20.80;99.90
19966;DHT22;10144;50.874;4.762;2023-07-31T13:15:06;20.80;99.90
19966;DHT22;10144;50.874;4.762;2023-07-31T13:17:32;20.70;99.90
19966;DHT22;10144;50.874;4.762;2023-07-31T13:19:58;20.60;99.90
19966;DHT22;10144;50.874;4.762;2023-07-31T13:22:24;20.70;99.90
19966;DHT22;10144;50.874;4.762;2023-07-31T13:24:50;20.70;99.90
19966;DHT22;10144;50.874;4.762;2023-07-31T13:27:16;20.70;99.90
19966;DHT22;10144;50.874;4.762;2023-07-31T13:29:44;20.60;99.90
19966;DHT22;10144;50.874;4.762;2023-07-31T13:32:10;20.50;99.90
19966;DHT22;10144;50.874;4.762;2023-07-31T13:34:36;20.40;99.90
19966;DHT22;10144;50.874;4.762;2023-07-31T13:37:01;20.30;99.90
19966;DHT22;10144;50.874;4.762;2023-07-31T13:39:27;20.20;99.90
19966;DHT22;10144;50.874;4.762;2023-07-31T13:41:53;20.10;99.90
19966;DHT22;10144;50.874;4.762;2023-07-31T13:44:18;20.00;99.90
19966;DHT22;10144;50.874;4.762;2023-07-31T13:46:44;20.00;99.90
19966;DHT22;10144;50.874;4.762;2023-07-31T13:49:10;19.90;99.90
19966;DHT22;10144;50.874;4.762;2023-07-31T13:51:35;19.80;99.90
19966;DHT22;10144;50.874;4.762;2023-07-31T13:54:01;19.80;99.90
19966;DHT22;10144;50.874;4.762;2023-07-31T13:56:27;19.70;99.90
19966;DHT22;10144;50.874;4.762;2023-07-31T13:58:52;19.60;99.90
19966;DHT22;10144;50.874;4.762;2023-07-31T14:01:18;19.50;99.90
19966;DHT22;10144;50.874;4.762;2023-07-31T14:03:44;19.40;99.90
19966;DHT22;10144;50.874;4.762;2023-07-31T14:06:09;19.40;99.90
19966;DHT22;10144;50.874;4.762;2023-07-31T14:08:35;19.40;99.90
19966;DHT22;10144;50.874;4.762;2023-07-31T14:11:01;19.30;99.90
19966;DHT22;10144;50.874;4.762;2023-07-31T14:13:26;19.20;99.90
19966;DHT22;10144;50.874;4.762;2023-07-31T14:15:52;19.10;99.90
19966;DHT22;10144;50.874;4.762;2023-07-31T14:18:18;19.00;99.90
19966;DHT22;10144;50.874;4.762;2023-07-31T14:20:44;19.00;99.90
19966;DHT22;10144;50.874;4.762;2023-07-31T14:23:09;18.90;99.90
19966;DHT22;10144;50.874;4.762;2023-07-31T14:25:35;18.90;99.90
19966;DHT22;10144;50.874;4.762;2023-07-31T14:28:00;18.90;99.90
19966;DHT22;10144;50.874;4.762;2023-07-31T14:30:26;18.90;99.90
19966;DHT22;10144;50.874;4.762;2023-07-31T14:32:52;18.70;99.90
19966;DHT22;10144;50.874;4.762;2023-07-31T14:35:17;18.60;99.90
19966;DHT22;10144;50.874;4.762;2023-07-31T14:37:44;18.60;99.90
19966;DHT22;10144;50.874;4.762;2023-07-31T14:40:11;18.50;99.90
19966;DHT22;10144;50.874;4.762;2023-07-31T14:42:38;18.50;99.90
19966;DHT22;10144;50.874;4.762;2023-07-31T14:45:05;18.50;99.90
19966;DHT22;10144;50.874;4.762;2023-07-31T14:47:31;18.50;99.90
19966;DHT22;10144;50.874;4.762;2023-07-31T14:49:58;18.40;99.90
19966;DHT22;10144;50.874;4.762;2023-07-31T14:52:23;18.40;99.90
19966;DHT22;10144;50.874;4.762;2023-07-31T14:54:49;18.50;99.90
19966;DHT22;10144;50.874;4.762;2023-07-31T14:57:15;18.50;99.90
19966;DHT22;10144;50.874;4.762;2023-07-31T14:59:41;18.50;99.90
19966;DHT22;10144;50.874;4.762;2023-07-31T15:02:08;18.50;99.90
19966;DHT22;10144;50.874;4.762;2023-07-31T15:04:35;18.60;99.90
19966;DHT22;10144;50.874;4.762;2023-07-31T15:07:00;18.60;99.90
19966;DHT22;10144;50.874;4.762;2023-07-31T15:09:26;18.60;99.90
19966;DHT22;10144;50.874;4.762;2023-07-31T15:11:52;18.60;99.90
19966;DHT22;10144;50.874;4.762;2023-07-31T15:14:18;18.50;99.90
19966;DHT22;10144;50.874;4.762;2023-07-31T15:16:43;18.60;99.90
19966;DHT22;10144;50.874;4.762;2023-07-31T15:19:09;18.60;99.90
19966;DHT22;10144;50.874;4.762;2023-07-31T15:21:36;18.60;99.90
19966;DHT22;10144;50.874;4.762;2023-07-31T15:24:03;18.70;99.90
19966;DHT22;10144;50.874;4.762;2023-07-31T15:26:29;18.80;99.90
19966;DHT22;10144;50.874;4.762;2023-07-31T15:29:21;18.70;99.90
19966;DHT22;10144;50.874;4.762;2023-07-31T15:31:48;18.70;99.90
19966;DHT22;10144;50.874;4.762;2023-07-31T15:34:14;18.70;99.90
19966;DHT22;10144;50.874;4.762;2023-07-31T15:36:40;18.60;99.90
19966;DHT22;10144;50.874;4.762;2023-07-31T15:39:05;18.50;99.90
19966;DHT22;10144;50.874;4.762;2023-07-31T15:41:34;18.50;99.90
19966;DHT22;10144;50.874;4.762;2023-07-31T15:44:00;18.50;99.90
19966;DHT22;10144;50.874;4.762;2023-07-31T15:46:26;18.40;99.90